Time;durP1;ratioP1;P1;durP2;ratioP2;P2;SDS_P1;SDS_P2;PMS_P1;PMS_P2;Temp;Humidity;BMP_temperature;BMP_pressure;BME280_temperature;BME280_humidity;BME280_pressure;Samples;Min_cycle;Max_cycle;Signal;HPM_P1;HPM_P2
2023/11/30 00:00:09;;;;;;;20.37;8.40;;;;;;;;;;5072161;28;20126;-84
2023/11/30 00:02:34;;;;;;;29.00;11.30;;;;;;;;;;5072077;28;20028;-84
2023/11/30 00:04:59;;;;;;;22.43;10.80;;;;;;;;;;5073638;28;20105;-84
2023/11/30 00:07:24;;;;;;;25.97;11.87;;;;;;;;;;5071067;28;20024;-85
2023/11/30 00:09:50;;;;;;;24.73;10.90;;;;;;;;;;5072150;28;20107;-85
2023/11/30 00:12:15;;;;;;;27.57;11.27;;;;;;;;;;5071821;28;20051;-85
2023/11/30 00:14:40;;;;;;;20.60;9.63;;;;;;;;;;5072043;28;20028;-84
2023/11/30 00:17:05;;;;;;;19.57;9.13;;;;;;;;;;5071755;28;20016;-84
2023/11/30 00:19:31;;;;;;;17.27;8.67;;;;;;;;;;5071855;28;20417;-85
2023/11/30 00:21:56;;;;;;;18.10;8.17;;;;;;;;;;5071772;28;20066;-84
2023/11/30 00:24:21;;;;;;;18.57;8.63;;;;;;;;;;5072996;28;20017;-84
2023/11/30 00:26:47;;;;;;;15.87;8.30;;;;;;;;;;5072013;28;20044;-85
2023/11/30 00:29:12;;;;;;;17.77;8.43;;;;;;;;;;5071961;28;20372;-85
2023/11/30 00:31:37;;;;;;;15.07;8.73;;;;;;;;;;5071364;28;20017;-84
2023/11/30 00:34:02;;;;;;;20.07;8.57;;;;;;;;;;5071552;28;20433;-84
2023/11/30 00:36:27;;;;;;;18.87;8.80;;;;;;;;;;5071573;28;20022;-84
2023/11/30 00:38:53;;;;;;;18.00;9.03;;;;;;;;;;5071676;28;20491;-84
2023/11/30 00:41:18;;;;;;;23.03;8.97;;;;;;;;;;5071257;28;20090;-84
2023/11/30 00:43:43;;;;;;;19.60;8.77;;;;;;;;;;5071463;28;20017;-84
2023/11/30 00:46:12;;;;;;;17.07;8.20;;;;;;;;;;5071314;28;20040;-83
2023/11/30 00:48:37;;;;;;;19.67;9.47;;;;;;;;;;5071552;28;20017;-85
2023/11/30 00:51:02;;;;;;;20.27;8.77;;;;;;;;;;5071407;28;20024;-85
2023/11/30 00:53:28;;;;;;;22.27;8.83;;;;;;;;;;5070808;28;20439;-84
2023/11/30 00:55:53;;;;;;;20.87;9.07;;;;;;;;;;5057904;28;20051;-85
2023/11/30 00:58:18;;;;;;;20.80;8.93;;;;;;;;;;5072427;28;20103;-84
2023/11/30 01:00:43;;;;;;;23.87;9.50;;;;;;;;;;5070824;28;20657;-84
2023/11/30 01:03:09;;;;;;;19.13;9.03;;;;;;;;;;5071078;28;20016;-84
2023/11/30 01:05:34;;;;;;;18.27;9.47;;;;;;;;;;5071034;28;20476;-83
2023/11/30 01:07:59;;;;;;;22.87;9.83;;;;;;;;;;5070932;28;20012;-84
2023/11/30 01:10:24;;;;;;;26.33;10.07;;;;;;;;;;5071249;28;20025;-83
2023/11/30 01:12:49;;;;;;;22.53;9.73;;;;;;;;;;5070849;28;20016;-84
2023/11/30 01:15:15;;;;;;;20.03;9.73;;;;;;;;;;5070815;28;20028;-84
2023/11/30 01:17:40;;;;;;;24.13;10.67;;;;;;;;;;5068407;28;20036;-83
2023/11/30 01:20:06;;;;;;;22.73;9.40;;;;;;;;;;5055302;28;20083;-83
2023/11/30 01:22:31;;;;;;;21.97;9.63;;;;;;;;;;5052150;28;20080;-83
2023/11/30 01:24:56;;;;;;;21.90;9.80;;;;;;;;;;5050578;28;20066;-83
2023/11/30 01:27:22;;;;;;;21.80;9.60;;;;;;;;;;5050764;28;20033;-84
2023/11/30 01:29:47;;;;;;;20.37;9.73;;;;;;;;;;5050438;28;20017;-84
2023/11/30 01:32:12;;;;;;;18.83;9.40;;;;;;;;;;5060595;28;20020;-84
2023/11/30 01:34:38;;;;;;;19.53;8.70;;;;;;;;;;5067296;28;20024;-83
2023/11/30 01:37:03;;;;;;;19.17;9.00;;;;;;;;;;5050708;28;20024;-83
2023/11/30 01:39:28;;;;;;;19.57;9.20;;;;;;;;;;5053518;28;20025;-83
2023/11/30 01:41:54;;;;;;;22.17;9.63;;;;;;;;;;5050481;28;20044;-84
2023/11/30 01:44:19;;;;;;;18.57;9.50;;;;;;;;;;5050668;28;20052;-84
2023/11/30 01:46:45;;;;;;;17.43;9.13;;;;;;;;;;5055142;28;20024;-84
2023/11/30 01:49:10;;;;;;;20.97;9.37;;;;;;;;;;5059531;28;20039;-84
2023/11/30 01:51:36;;;;;;;20.27;9.20;;;;;;;;;;5050316;28;20028;-84
2023/11/30 01:54:02;;;;;;;20.60;9.67;;;;;;;;;;5053191;28;20375;-84
2023/11/30 01:56:28;;;;;;;21.90;9.80;;;;;;;;;;5061705;28;20032;-83
2023/11/30 01:58:54;;;;;;;18.47;9.13;;;;;;;;;;5056337;28;20027;-83
2023/11/30 02:01:20;;;;;;;21.20;8.00;;;;;;;;;;5071715;28;20111;-84
2023/11/30 02:03:45;;;;;;;17.07;8.27;;;;;;;;;;5070689;28;20025;-84
2023/11/30 02:06:15;;;;;;;18.50;8.53;;;;;;;;;;5070552;28;20020;-84
2023/11/30 02:08:41;;;;;;;21.13;9.97;;;;;;;;;;5070860;28;20063;-83
2023/11/30 02:11:06;;;;;;;16.33;8.60;;;;;;;;;;5070573;28;20044;-83
2023/11/30 02:13:31;;;;;;;23.27;10.07;;;;;;;;;;5070475;28;20032;-84
2023/11/30 02:15:56;;;;;;;22.67;9.57;;;;;;;;;;5070595;28;20028;-84
2023/11/30 02:18:22;;;;;;;20.93;9.07;;;;;;;;;;5070760;28;20028;-84
2023/11/30 02:20:47;;;;;;;20.37;9.57;;;;;;;;;;5070054;28;20028;-84
2023/11/30 02:23:12;;;;;;;22.80;10.40;;;;;;;;;;5070278;28;20093;-84
2023/11/30 02:25:37;;;;;;;20.93;8.83;;;;;;;;;;5070397;28;20021;-84
2023/11/30 02:28:03;;;;;;;22.63;10.10;;;;;;;;;;5070444;28;20035;-83
2023/11/30 02:30:28;;;;;;;18.23;9.13;;;;;;;;;;5072939;28;20034;-83
2023/11/30 02:32:53;;;;;;;19.77;9.30;;;;;;;;;;5073916;28;20024;-83
2023/11/30 02:35:18;;;;;;;27.30;10.33;;;;;;;;;;5074025;28;20035;-84
2023/11/30 02:37:44;;;;;;;20.90;9.20;;;;;;;;;;5059911;28;20071;-84
2023/11/30 02:40:09;;;;;;;19.73;8.63;;;;;;;;;;5073936;28;20013;-84
2023/11/30 02:42:34;;;;;;;19.07;9.50;;;;;;;;;;5075178;28;20069;-84
2023/11/30 02:45:00;;;;;;;19.37;9.47;;;;;;;;;;5073796;28;20040;-84
2023/11/30 02:47:25;;;;;;;19.63;7.93;;;;;;;;;;5073857;28;20025;-84
2023/11/30 02:49:50;;;;;;;20.20;8.30;;;;;;;;;;5065894;28;20439;-83
2023/11/30 02:52:15;;;;;;;20.37;8.73;;;;;;;;;;5064756;28;20449;-83
2023/11/30 02:54:41;;;;;;;20.00;8.63;;;;;;;;;;5073699;28;20426;-84
2023/11/30 02:57:06;;;;;;;18.37;8.57;;;;;;;;;;5060386;28;20083;-84
2023/11/30 02:59:31;;;;;;;17.97;8.23;;;;;;;;;;5072571;28;20056;-84
2023/11/30 03:01:57;;;;;;;20.07;9.07;;;;;;;;;;5072979;28;20016;-84
2023/11/30 03:04:22;;;;;;;21.03;8.97;;;;;;;;;;5073419;28;20070;-84
2023/11/30 03:06:48;;;;;;;20.80;9.23;;;;;;;;;;5073226;28;20451;-84
2023/11/30 03:09:13;;;;;;;20.00;8.33;;;;;;;;;;5073696;28;20104;-84
2023/11/30 03:11:39;;;;;;;23.37;9.83;;;;;;;;;;5073036;28;20044;-84
2023/11/30 03:14:04;;;;;;;25.33;9.97;;;;;;;;;;5053589;28;20028;-84
2023/11/30 03:16:29;;;;;;;21.80;9.10;;;;;;;;;;5071821;28;20162;-83
2023/11/30 03:18:54;;;;;;;22.13;8.83;;;;;;;;;;5073015;28;20078;-84
2023/11/30 03:21:20;;;;;;;19.73;8.90;;;;;;;;;;5072582;28;20056;-84
2023/11/30 03:23:46;;;;;;;18.53;8.30;;;;;;;;;;5062457;28;20120;-84
2023/11/30 03:26:11;;;;;;;16.20;8.47;;;;;;;;;;5073344;28;20017;-84
2023/11/30 03:28:37;;;;;;;22.77;8.50;;;;;;;;;;5073079;28;20361;-84
2023/11/30 03:31:02;;;;;;;18.67;8.93;;;;;;;;;;5058725;28;20472;-85
2023/11/30 03:33:27;;;;;;;18.80;8.07;;;;;;;;;;5069000;28;20092;-85
2023/11/30 03:35:52;;;;;;;23.40;9.60;;;;;;;;;;5070511;28;20039;-85
2023/11/30 03:38:18;;;;;;;17.13;7.87;;;;;;;;;;5065276;28;20020;-85
2023/11/30 03:40:43;;;;;;;16.67;8.03;;;;;;;;;;5072069;28;20035;-85
2023/11/30 03:43:08;;;;;;;19.87;8.37;;;;;;;;;;5059643;28;20021;-85
2023/11/30 03:45:34;;;;;;;18.77;8.30;;;;;;;;;;5072981;28;20029;-85
2023/11/30 03:47:59;;;;;;;18.27;8.43;;;;;;;;;;5071599;28;20020;-85
2023/11/30 03:50:24;;;;;;;22.80;9.90;;;;;;;;;;5072223;28;20043;-85
2023/11/30 03:52:49;;;;;;;20.30;8.70;;;;;;;;;;5058520;28;20415;-85
2023/11/30 03:55:15;;;;;;;25.17;10.33;;;;;;;;;;5065140;28;20102;-85
2023/11/30 03:57:40;;;;;;;19.47;9.17;;;;;;;;;;5066321;28;20012;-84
2023/11/30 04:00:07;;;;;;;21.60;9.20;;;;;;;;;;5067211;28;20021;-84
2023/11/30 04:02:33;;;;;;;22.23;9.33;;;;;;;;;;5064057;28;20088;-85
2023/11/30 04:04:58;;;;;;;23.77;8.77;;;;;;;;;;5072552;28;20345;-85
2023/11/30 04:07:29;;;;;;;24.40;9.93;;;;;;;;;;5072366;28;20424;-85
2023/11/30 04:09:54;;;;;;;25.23;10.13;;;;;;;;;;5070371;28;20027;-85
2023/11/30 04:12:19;;;;;;;31.63;12.23;;;;;;;;;;5060201;28;20472;-85
2023/11/30 04:14:45;;;;;;;20.23;9.23;;;;;;;;;;5071931;28;20028;-85
2023/11/30 04:17:10;;;;;;;27.53;10.47;;;;;;;;;;5057771;28;20421;-85
2023/11/30 04:19:35;;;;;;;29.40;10.30;;;;;;;;;;5073232;28;20531;-84
2023/11/30 04:22:01;;;;;;;25.13;9.63;;;;;;;;;;5070568;28;20091;-84
2023/11/30 04:24:26;;;;;;;20.23;9.20;;;;;;;;;;5072459;28;20047;-85
2023/11/30 04:26:51;;;;;;;26.37;10.87;;;;;;;;;;5071741;28;20013;-85
2023/11/30 04:29:17;;;;;;;23.90;9.47;;;;;;;;;;5071605;28;20074;-85
2023/11/30 04:31:42;;;;;;;23.90;9.40;;;;;;;;;;5071899;28;20031;-84
2023/11/30 04:34:08;;;;;;;26.43;8.90;;;;;;;;;;5071818;28;20012;-84
2023/11/30 04:36:33;;;;;;;19.77;8.73;;;;;;;;;;5071880;28;20119;-85
2023/11/30 04:38:59;;;;;;;21.40;8.60;;;;;;;;;;5071377;28;20047;-84
2023/11/30 04:41:24;;;;;;;22.40;8.63;;;;;;;;;;5073006;28;20021;-84
2023/11/30 04:43:49;;;;;;;17.73;8.17;;;;;;;;;;5071984;28;20016;-85
2023/11/30 04:46:15;;;;;;;18.10;8.03;;;;;;;;;;5071579;28;20025;-85
2023/11/30 04:48:40;;;;;;;23.80;8.50;;;;;;;;;;5071395;28;20376;-85
2023/11/30 04:51:05;;;;;;;21.90;9.37;;;;;;;;;;5071231;28;20024;-85
2023/11/30 04:53:32;;;;;;;29.43;10.30;;;;;;;;;;5071088;28;20027;-85
2023/11/30 04:55:57;;;;;;;27.33;10.63;;;;;;;;;;5071330;28;20016;-84
2023/11/30 04:58:22;;;;;;;24.13;10.47;;;;;;;;;;5070993;28;20117;-85
2023/11/30 05:00:48;;;;;;;32.93;11.33;;;;;;;;;;5071368;28;20448;-85
2023/11/30 05:03:13;;;;;;;26.97;10.50;;;;;;;;;;5071320;28;20387;-84
2023/11/30 05:05:38;;;;;;;28.70;12.53;;;;;;;;;;5071787;28;20463;-85
2023/11/30 05:08:03;;;;;;;42.13;15.40;;;;;;;;;;5071145;28;20024;-85
2023/11/30 05:10:29;;;;;;;39.00;12.40;;;;;;;;;;5071153;28;20325;-84
2023/11/30 05:12:54;;;;;;;33.17;12.77;;;;;;;;;;5071139;28;20024;-85
2023/11/30 05:15:19;;;;;;;34.50;12.63;;;;;;;;;;5071202;28;20028;-85
2023/11/30 05:17:44;;;;;;;31.50;11.93;;;;;;;;;;5070995;28;20521;-85
2023/11/30 05:20:10;;;;;;;35.03;12.30;;;;;;;;;;5071206;28;20021;-85
2023/11/30 05:22:35;;;;;;;31.13;11.80;;;;;;;;;;5070821;28;20021;-85
2023/11/30 05:25:00;;;;;;;34.33;11.87;;;;;;;;;;5071034;28;20024;-85
2023/11/30 05:27:25;;;;;;;22.90;10.50;;;;;;;;;;5070868;28;20025;-85
2023/11/30 05:29:51;;;;;;;34.00;12.27;;;;;;;;;;5071045;28;20136;-85
2023/11/30 05:32:16;;;;;;;23.90;10.23;;;;;;;;;;5056926;28;20115;-85
2023/11/30 05:34:42;;;;;;;29.80;10.97;;;;;;;;;;5070886;28;20024;-84
2023/11/30 05:37:07;;;;;;;23.57;10.33;;;;;;;;;;5070950;28;20024;-84
2023/11/30 05:39:32;;;;;;;28.73;10.80;;;;;;;;;;5070833;28;20067;-85
2023/11/30 05:41:58;;;;;;;29.17;10.73;;;;;;;;;;5070690;28;20031;-84
2023/11/30 05:44:23;;;;;;;25.13;11.00;;;;;;;;;;5065219;28;20021;-84
2023/11/30 05:46:50;;;;;;;31.40;11.67;;;;;;;;;;5062698;28;20383;-85
2023/11/30 05:49:15;;;;;;;32.10;11.30;;;;;;;;;;5070756;28;20029;-85
2023/11/30 05:51:40;;;;;;;33.60;12.10;;;;;;;;;;5070598;28;20043;-85
2023/11/30 05:54:06;;;;;;;26.03;10.13;;;;;;;;;;5056907;28;20028;-86
2023/11/30 05:56:31;;;;;;;26.20;10.87;;;;;;;;;;5070435;28;20047;-85
2023/11/30 05:58:56;;;;;;;23.50;9.97;;;;;;;;;;5070542;28;20325;-85
2023/11/30 06:01:21;;;;;;;30.43;11.30;;;;;;;;;;5068621;28;20082;-84
2023/11/30 06:03:47;;;;;;;29.30;12.10;;;;;;;;;;5063164;28;20066;-85
2023/11/30 06:06:12;;;;;;;30.47;11.60;;;;;;;;;;5073680;28;20025;-85
2023/11/30 06:08:37;;;;;;;35.97;11.80;;;;;;;;;;5074390;28;20378;-84
2023/11/30 06:11:03;;;;;;;26.37;11.80;;;;;;;;;;5073814;28;20017;-84
2023/11/30 06:13:28;;;;;;;30.07;12.33;;;;;;;;;;5059821;28;20016;-84
2023/11/30 06:15:54;;;;;;;39.07;13.03;;;;;;;;;;5064457;28;20102;-84
2023/11/30 06:18:20;;;;;;;31.27;11.73;;;;;;;;;;5060201;28;20614;-84
2023/11/30 06:20:45;;;;;;;24.60;11.40;;;;;;;;;;5056774;28;20027;-83
2023/11/30 06:23:10;;;;;;;27.60;11.70;;;;;;;;;;5057931;28;20016;-84
2023/11/30 06:25:35;;;;;;;29.57;10.37;;;;;;;;;;5071349;28;20025;-84
2023/11/30 06:28:00;;;;;;;25.93;10.33;;;;;;;;;;5073186;28;20124;-85
2023/11/30 06:30:26;;;;;;;30.17;11.83;;;;;;;;;;5072036;28;20017;-84
2023/11/30 06:32:51;;;;;;;31.23;12.13;;;;;;;;;;5058685;28;20028;-85
2023/11/30 06:35:16;;;;;;;30.77;11.53;;;;;;;;;;5067628;28;20042;-84
2023/11/30 06:37:41;;;;;;;31.80;11.53;;;;;;;;;;5058844;28;20021;-85
2023/11/30 06:40:08;;;;;;;27.83;11.83;;;;;;;;;;5071258;28;20044;-84
2023/11/30 06:42:34;;;;;;;43.77;15.83;;;;;;;;;;5054412;28;20021;-84
2023/11/30 06:44:59;;;;;;;35.13;13.73;;;;;;;;;;5068996;28;20017;-84
2023/11/30 06:47:24;;;;;;;33.60;13.57;;;;;;;;;;5071680;28;20468;-85
2023/11/30 06:49:50;;;;;;;37.53;13.17;;;;;;;;;;5061760;28;20024;-85
2023/11/30 06:52:15;;;;;;;31.80;11.90;;;;;;;;;;5058154;28;20417;-84
2023/11/30 06:54:41;;;;;;;27.13;11.50;;;;;;;;;;5062365;28;20020;-84
2023/11/30 06:57:06;;;;;;;33.33;12.97;;;;;;;;;;5069300;28;20049;-83
2023/11/30 06:59:33;;;;;;;33.70;12.57;;;;;;;;;;5069821;28;20043;-84
2023/11/30 07:01:58;;;;;;;35.10;11.90;;;;;;;;;;5072545;28;20070;-84
2023/11/30 07:04:23;;;;;;;30.07;11.77;;;;;;;;;;5073297;28;20024;-85
2023/11/30 07:06:48;;;;;;;26.97;11.43;;;;;;;;;;5073039;28;20023;-84
2023/11/30 07:09:13;;;;;;;28.00;11.47;;;;;;;;;;5071158;28;20116;-84
2023/11/30 07:11:39;;;;;;;27.07;10.87;;;;;;;;;;5069069;28;20113;-84
2023/11/30 07:14:05;;;;;;;21.90;9.83;;;;;;;;;;5074176;28;20021;-85
2023/11/30 07:16:30;;;;;;;32.10;10.83;;;;;;;;;;5071971;28;20036;-84
2023/11/30 07:18:56;;;;;;;31.23;11.10;;;;;;;;;;5072705;28;20253;-84
2023/11/30 07:21:21;;;;;;;28.23;10.90;;;;;;;;;;5072396;28;20020;-84
2023/11/30 07:23:46;;;;;;;30.30;12.13;;;;;;;;;;5072308;28;20417;-83
2023/11/30 07:26:13;;;;;;;33.23;14.13;;;;;;;;;;5069784;28;20047;-84
2023/11/30 07:28:38;;;;;;;26.40;11.93;;;;;;;;;;5066317;28;20024;-84
2023/11/30 07:31:03;;;;;;;29.33;12.07;;;;;;;;;;5071092;28;20373;-83
2023/11/30 07:33:29;;;;;;;29.73;11.90;;;;;;;;;;5068660;28;20708;-84
2023/11/30 07:35:54;;;;;;;26.27;12.23;;;;;;;;;;5055228;28;20024;-84
2023/11/30 07:38:19;;;;;;;28.50;11.57;;;;;;;;;;5053108;28;20036;-84
2023/11/30 07:40:45;;;;;;;30.47;11.70;;;;;;;;;;5067645;28;20024;-83
2023/11/30 07:43:11;;;;;;;24.27;9.97;;;;;;;;;;5065808;28;20383;-84
2023/11/30 07:45:36;;;;;;;28.10;11.93;;;;;;;;;;5067893;28;20112;-84
2023/11/30 07:48:03;;;;;;;25.67;10.93;;;;;;;;;;5069203;28;20100;-83
2023/11/30 07:50:28;;;;;;;25.23;11.80;;;;;;;;;;5061983;28;20028;-84
2023/11/30 07:52:54;;;;;;;29.10;11.60;;;;;;;;;;5063010;28;20070;-84
2023/11/30 07:55:20;;;;;;;26.23;11.23;;;;;;;;;;5068353;28;20028;-84
2023/11/30 07:57:45;;;;;;;26.83;10.50;;;;;;;;;;5064933;28;20028;-83
2023/11/30 08:00:11;;;;;;;27.50;10.33;;;;;;;;;;5071551;28;20017;-85
2023/11/30 08:02:36;;;;;;;23.50;9.60;;;;;;;;;;5071727;28;20035;-84
2023/11/30 08:05:04;;;;;;;25.87;10.07;;;;;;;;;;5071606;28;20477;-83
2023/11/30 08:07:30;;;;;;;21.00;9.20;;;;;;;;;;5071430;28;20135;-83
2023/11/30 08:09:55;;;;;;;34.60;10.73;;;;;;;;;;5071780;28;20047;-83
2023/11/30 08:12:21;;;;;;;25.47;10.10;;;;;;;;;;5071317;28;20107;-83
2023/11/30 08:14:46;;;;;;;27.00;11.23;;;;;;;;;;5059753;28;20032;-82
2023/11/30 08:17:11;;;;;;;22.00;10.00;;;;;;;;;;5071350;28;20027;-83
2023/11/30 08:19:37;;;;;;;27.37;10.70;;;;;;;;;;5071361;28;20021;-84
2023/11/30 08:22:03;;;;;;;85.90;31.93;;;;;;;;;;5071671;28;20044;-83
2023/11/30 08:24:29;;;;;;;41.43;15.37;;;;;;;;;;5071607;28;20497;-83
2023/11/30 08:26:54;;;;;;;22.80;9.17;;;;;;;;;;5070120;28;20345;-83
2023/11/30 08:29:19;;;;;;;31.67;11.50;;;;;;;;;;5071018;28;20463;-83
2023/11/30 08:31:44;;;;;;;27.80;10.97;;;;;;;;;;5071540;28;20036;-83
2023/11/30 08:34:10;;;;;;;35.00;13.60;;;;;;;;;;5071446;28;20054;-83
2023/11/30 08:36:35;;;;;;;33.47;12.53;;;;;;;;;;5071469;28;20020;-83
2023/11/30 08:39:03;;;;;;;34.33;12.00;;;;;;;;;;5071733;28;20027;-84
2023/11/30 08:41:28;;;;;;;27.50;11.90;;;;;;;;;;5070734;28;20029;-83
2023/11/30 08:43:53;;;;;;;34.20;12.23;;;;;;;;;;5071232;28;20107;-83
2023/11/30 08:46:18;;;;;;;32.13;12.23;;;;;;;;;;5070996;28;20048;-83
2023/11/30 08:48:45;;;;;;;23.87;10.87;;;;;;;;;;5070873;28;20017;-83
2023/11/30 08:51:10;;;;;;;25.67;9.87;;;;;;;;;;5070964;28;20020;-84
2023/11/30 08:53:36;;;;;;;27.53;10.30;;;;;;;;;;5071351;28;20440;-83
2023/11/30 08:56:01;;;;;;;24.93;9.90;;;;;;;;;;5070593;28;20023;-84
2023/11/30 08:58:27;;;;;;;23.63;9.63;;;;;;;;;;5070983;28;20108;-83
2023/11/30 09:00:52;;;;;;;28.10;10.67;;;;;;;;;;5070725;28;20077;-84
2023/11/30 09:03:18;;;;;;;21.87;10.47;;;;;;;;;;5070893;28;20016;-83
2023/11/30 09:05:43;;;;;;;21.87;10.03;;;;;;;;;;5072426;28;20481;-83
2023/11/30 09:08:08;;;;;;;25.70;10.90;;;;;;;;;;5056556;28;20027;-83
2023/11/30 09:10:34;;;;;;;28.57;12.40;;;;;;;;;;5071306;28;20025;-83
2023/11/30 09:13:02;;;;;;;28.67;11.30;;;;;;;;;;5070901;28;20020;-83
2023/11/30 09:15:27;;;;;;;22.93;10.43;;;;;;;;;;5070536;28;20029;-83
2023/11/30 09:17:53;;;;;;;24.63;10.40;;;;;;;;;;5070811;28;20392;-83
2023/11/30 09:20:19;;;;;;;25.20;10.73;;;;;;;;;;5058662;28;20052;-83
2023/11/30 09:22:45;;;;;;;28.80;10.93;;;;;;;;;;5070573;28;20507;-83
2023/11/30 09:25:11;;;;;;;25.67;10.50;;;;;;;;;;5071099;28;20031;-84
2023/11/30 09:27:36;;;;;;;24.87;10.20;;;;;;;;;;5063278;28;20021;-84
2023/11/30 09:30:04;;;;;;;25.60;10.17;;;;;;;;;;5063806;28;20030;-84
2023/11/30 09:32:29;;;;;;;24.83;11.00;;;;;;;;;;5070802;28;20039;-83
2023/11/30 09:34:54;;;;;;;25.10;11.13;;;;;;;;;;5059103;28;20028;-83
2023/11/30 09:37:20;;;;;;;25.23;9.73;;;;;;;;;;5069793;28;20063;-84
2023/11/30 09:39:46;;;;;;;23.97;10.20;;;;;;;;;;5074315;28;20094;-84
2023/11/30 09:42:16;;;;;;;26.53;10.53;;;;;;;;;;5074951;28;20452;-83
2023/11/30 09:44:42;;;;;;;23.93;11.20;;;;;;;;;;5075486;28;20021;-83
2023/11/30 09:47:08;;;;;;;25.30;11.50;;;;;;;;;;5074994;28;20456;-82
2023/11/30 09:49:33;;;;;;;31.60;12.73;;;;;;;;;;5075124;28;20074;-83
2023/11/30 09:51:58;;;;;;;29.90;13.33;;;;;;;;;;5075608;28;20023;-84
2023/11/30 09:54:23;;;;;;;40.57;13.90;;;;;;;;;;5074743;28;20384;-83
2023/11/30 09:56:49;;;;;;;31.47;13.13;;;;;;;;;;5075987;28;20413;-84
2023/11/30 09:59:14;;;;;;;30.27;12.43;;;;;;;;;;5074780;28;20253;-84
2023/11/30 10:01:39;;;;;;;31.33;13.00;;;;;;;;;;5059206;28;20082;-83
2023/11/30 10:04:14;;;;;;;31.87;12.50;;;;;;;;;;5072898;28;20048;-84
2023/11/30 10:06:40;;;;;;;26.67;12.90;;;;;;;;;;5061264;28;20071;-84
2023/11/30 10:09:07;;;;;;;26.13;12.10;;;;;;;;;;5074835;28;20040;-83
2023/11/30 10:11:34;;;;;;;40.67;15.00;;;;;;;;;;5072252;28;20100;-84
2023/11/30 10:13:59;;;;;;;31.33;12.80;;;;;;;;;;5075179;28;20035;-84
2023/11/30 10:16:25;;;;;;;31.67;11.10;;;;;;;;;;5074485;28;20024;-84
2023/11/30 10:18:50;;;;;;;27.93;11.73;;;;;;;;;;5073971;28;20023;-83
2023/11/30 10:21:15;;;;;;;32.27;13.50;;;;;;;;;;5071979;28;20107;-87
2023/11/30 10:23:43;;;;;;;30.60;13.93;;;;;;;;;;5069464;28;20439;-82
2023/11/30 10:26:09;;;;;;;28.20;13.13;;;;;;;;;;5063592;28;20445;-82
2023/11/30 10:28:35;;;;;;;29.67;12.87;;;;;;;;;;5059452;28;20079;-82
2023/11/30 10:31:02;;;;;;;40.30;14.43;;;;;;;;;;5071938;28;20016;-82
2023/11/30 10:33:28;;;;;;;39.30;14.37;;;;;;;;;;5061204;28;20020;-84
2023/11/30 10:35:54;;;;;;;37.37;14.77;;;;;;;;;;5061667;28;20062;-84
2023/11/30 10:38:24;;;;;;;36.80;13.77;;;;;;;;;;5071255;28;20105;-84
2023/11/30 10:40:51;;;;;;;39.07;14.27;;;;;;;;;;5060983;28;20451;-84
2023/11/30 10:43:16;;;;;;;37.33;14.83;;;;;;;;;;5073771;28;20463;-84
2023/11/30 10:45:44;;;;;;;32.17;14.17;;;;;;;;;;5073652;28;20039;-84
2023/11/30 10:48:12;;;;;;;34.40;13.33;;;;;;;;;;5074167;28;20017;-84
2023/11/30 10:50:38;;;;;;;26.73;12.30;;;;;;;;;;5072835;28;20021;-84
2023/11/30 10:53:07;;;;;;;44.37;15.73;;;;;;;;;;5073530;28;20111;-84
2023/11/30 10:55:32;;;;;;;39.03;16.40;;;;;;;;;;5073713;28;20506;-84
2023/11/30 10:57:57;;;;;;;37.47;15.70;;;;;;;;;;5071401;28;20038;-85
2023/11/30 11:00:23;;;;;;;46.63;18.63;;;;;;;;;;5060928;28;20070;-84
2023/11/30 11:02:48;;;;;;;46.30;17.57;;;;;;;;;;5073695;28;20073;-84
2023/11/30 11:05:20;;;;;;;44.17;16.43;;;;;;;;;;5073307;28;20024;-84
2023/11/30 11:07:46;;;;;;;36.85;16.05;;;;;;;;;;5073209;28;20028;-84
2023/11/30 11:10:21;;;;;;;42.17;16.93;;;;;;;;;;5072821;28;20059;-84
2023/11/30 11:12:48;;;;;;;47.30;16.43;;;;;;;;;;5072993;28;20029;-83
2023/11/30 11:15:18;;;;;;;47.93;18.07;;;;;;;;;;5072629;28;20391;-83
2023/11/30 11:17:47;;;;;;;46.13;18.13;;;;;;;;;;5065031;28;20043;-83
2023/11/30 11:20:22;;;;;;;45.60;18.93;;;;;;;;;;5072312;28;20657;-83
2023/11/30 11:22:47;;;;;;;43.53;18.23;;;;;;;;;;5072733;28;20021;-83
2023/11/30 11:25:14;;;;;;;46.33;18.17;;;;;;;;;;5072124;28;20013;-83
2023/11/30 11:27:40;;;;;;;44.90;18.37;;;;;;;;;;5072422;28;20145;-82
2023/11/30 11:30:07;;;;;;;49.53;20.10;;;;;;;;;;5072169;28;20456;-82
2023/11/30 11:32:33;;;;;;;38.70;17.50;;;;;;;;;;5071348;28;20028;-82
2023/11/30 11:34:58;;;;;;;47.27;19.47;;;;;;;;;;5072560;28;20488;-81
2023/11/30 11:37:24;;;;;;;46.17;18.87;;;;;;;;;;5073613;28;20104;-81
2023/11/30 11:39:52;;;;;;;43.93;19.07;;;;;;;;;;5072308;28;20052;-80
2023/11/30 11:42:19;;;;;;;43.27;18.57;;;;;;;;;;5072465;28;20025;-86
2023/11/30 11:44:44;;;;;;;40.80;18.20;;;;;;;;;;5073256;28;20024;-86
2023/11/30 11:47:10;;;;;;;40.63;18.70;;;;;;;;;;5072342;28;20161;-87
2023/11/30 11:49:35;;;;;;;39.17;16.83;;;;;;;;;;5062293;28;20024;-87
2023/11/30 11:52:01;;;;;;;42.47;18.43;;;;;;;;;;5073034;28;20333;-87
2023/11/30 11:54:26;;;;;;;41.87;19.33;;;;;;;;;;5073376;28;20044;-87
2023/11/30 11:56:52;;;;;;;34.60;16.40;;;;;;;;;;5074260;28;20051;-87
2023/11/30 11:59:18;;;;;;;42.70;17.70;;;;;;;;;;5072845;28;20029;-87
2023/11/30 12:01:43;;;;;;;37.57;17.13;;;;;;;;;;5071521;28;20028;-86
2023/11/30 12:04:08;;;;;;;37.57;17.70;;;;;;;;;;5073234;28;20021;-87
2023/11/30 12:06:34;;;;;;;32.43;15.27;;;;;;;;;;5072938;28;20016;-88
2023/11/30 12:09:09;;;;;;;33.47;15.27;;;;;;;;;;5072762;28;20040;-87
2023/11/30 12:11:35;;;;;;;28.07;12.53;;;;;;;;;;5072665;28;20021;-87
2023/11/30 12:14:00;;;;;;;39.43;15.57;;;;;;;;;;5072854;28;20074;-87
2023/11/30 12:16:25;;;;;;;38.47;16.77;;;;;;;;;;5071484;28;20103;-81
2023/11/30 12:18:50;;;;;;;38.20;16.97;;;;;;;;;;5071281;28;20044;-84
2023/11/30 12:21:16;;;;;;;38.77;18.13;;;;;;;;;;5071616;28;20024;-84
2023/11/30 12:23:41;;;;;;;37.30;15.80;;;;;;;;;;5071666;28;20016;-86
2023/11/30 12:26:07;;;;;;;30.17;15.17;;;;;;;;;;5071296;28;20020;-84
2023/11/30 12:28:33;;;;;;;36.77;16.63;;;;;;;;;;5071473;28;20069;-84
2023/11/30 12:30:58;;;;;;;42.43;18.33;;;;;;;;;;5070220;28;20709;-83
2023/11/30 12:33:23;;;;;;;38.73;17.73;;;;;;;;;;5070899;28;20029;-85
2023/11/30 12:35:52;;;;;;;43.33;18.33;;;;;;;;;;5066572;28;20013;-82
2023/11/30 12:38:17;;;;;;;42.33;18.23;;;;;;;;;;5060233;28;20021;-84
2023/11/30 12:40:42;;;;;;;37.00;16.83;;;;;;;;;;5069211;28;20030;-84
2023/11/30 12:43:07;;;;;;;35.23;17.43;;;;;;;;;;5071157;28;20016;-84
2023/11/30 12:45:33;;;;;;;33.07;15.67;;;;;;;;;;5071455;28;20070;-85
2023/11/30 12:47:58;;;;;;;33.97;15.10;;;;;;;;;;5067689;28;20074;-86
2023/11/30 12:50:23;;;;;;;36.70;17.13;;;;;;;;;;5072507;28;20134;-85
2023/11/30 12:52:48;;;;;;;35.67;15.53;;;;;;;;;;5072484;28;20051;-85
2023/11/30 12:55:14;;;;;;;35.70;16.10;;;;;;;;;;5071927;28;20032;-85
2023/11/30 12:57:39;;;;;;;34.90;16.10;;;;;;;;;;5073451;28;20031;-84
2023/11/30 13:00:09;;;;;;;37.17;15.63;;;;;;;;;;5073224;28;20031;-86
2023/11/30 13:02:34;;;;;;;30.60;14.80;;;;;;;;;;5072098;28;20021;-86
2023/11/30 13:04:59;;;;;;;40.07;16.37;;;;;;;;;;5071972;28;20017;-86
2023/11/30 13:07:25;;;;;;;37.40;17.00;;;;;;;;;;5072034;28;20021;-86
2023/11/30 13:09:50;;;;;;;37.47;14.97;;;;;;;;;;5062450;28;20017;-85
2023/11/30 13:12:16;;;;;;;30.73;14.37;;;;;;;;;;5071908;28;20021;-86
2023/11/30 13:14:41;;;;;;;33.53;16.10;;;;;;;;;;5069302;28;20401;-86
2023/11/30 13:17:06;;;;;;;38.53;17.97;;;;;;;;;;5072240;28;20397;-85
2023/11/30 13:19:32;;;;;;;34.93;17.13;;;;;;;;;;5068857;28;20425;-86
2023/11/30 13:21:58;;;;;;;36.80;17.40;;;;;;;;;;5063202;28;20025;-86
2023/11/30 13:24:23;;;;;;;33.07;16.87;;;;;;;;;;5064724;28;20096;-85
2023/11/30 13:26:48;;;;;;;30.87;14.40;;;;;;;;;;5065230;28;20027;-86
2023/11/30 13:29:13;;;;;;;35.10;16.80;;;;;;;;;;5065361;28;20017;-86
2023/11/30 13:31:39;;;;;;;25.43;11.70;;;;;;;;;;5066679;28;20021;-86
2023/11/30 13:34:04;;;;;;;25.57;13.00;;;;;;;;;;5071768;28;20380;-86
2023/11/30 13:36:29;;;;;;;25.93;12.17;;;;;;;;;;5071677;28;20023;-86
2023/11/30 13:38:55;;;;;;;25.77;13.10;;;;;;;;;;5069020;28;20043;-86
2023/11/30 13:41:21;;;;;;;23.73;13.00;;;;;;;;;;5065960;28;20027;-86
2023/11/30 13:43:46;;;;;;;26.13;11.90;;;;;;;;;;5071573;28;20451;-86
2023/11/30 13:46:12;;;;;;;23.83;12.13;;;;;;;;;;5071876;28;20086;-86
2023/11/30 13:48:42;;;;;;;24.07;11.93;;;;;;;;;;5071682;28;20020;-86
2023/11/30 13:51:08;;;;;;;26.50;13.73;;;;;;;;;;5068193;28;20099;-85
2023/11/30 13:53:33;;;;;;;29.10;12.60;;;;;;;;;;5071293;28;20024;-85
2023/11/30 13:55:58;;;;;;;25.77;12.17;;;;;;;;;;5069513;28;20028;-85
2023/11/30 13:58:24;;;;;;;24.73;12.17;;;;;;;;;;5063700;28;20063;-86
2023/11/30 14:00:49;;;;;;;23.73;11.67;;;;;;;;;;5088817;28;20393;-85
2023/11/30 14:03:16;;;;;;;26.43;12.57;;;;;;;;;;5058609;28;20028;-86
2023/11/30 14:05:41;;;;;;;24.43;11.70;;;;;;;;;;5062416;28;20016;-86
2023/11/30 14:08:07;;;;;;;24.77;11.63;;;;;;;;;;5071181;28;20016;-86
2023/11/30 14:10:32;;;;;;;27.97;12.60;;;;;;;;;;5070133;28;20380;-86